< Typhoon 199003 1990 Season Typhoon 199005 >
Typhoon 199004 (NATHAN)
General InformationTrack Information on Google MapsDetailed Wind InformationList of All Images || Disaster Info.ResourceGoogle EarthGE AnimationAtom FeedGeoJSON
Detalied Best Track (Time Zone = UTC)
Year Month Day Hour Lat. Long. Pressure (hPa) Wind (kt) Class Image Chart
1990 6 13 18 11.0 129.0 1004 0 2 Image Chart
1990 6 14 00 12.5 126.5 1004 0 2 Image Chart
1990 6 14 06 13.5 124.5 1004 0 2 Image Chart
1990 6 14 12 14.5 123.0 1004 0 2 Image Chart
1990 6 14 18 15.5 121.0 1004 0 2 Image Chart
1990 6 15 00 17.0 119.0 1000 0 2 Image Chart
1990 6 15 06 17.5 117.0 1000 0 2 Image Chart
1990 6 15 12 18.0 115.0 998 0 2 Image Chart
1990 6 15 18 17.5 113.5 996 35 3 Image Chart
1990 6 16 00 17.5 112.7 994 35 3 Image Chart
1990 6 16 06 17.2 112.2 990 40 3 Image Chart
1990 6 16 12 17.0 112.0 985 45 3 Image Chart
1990 6 16 18 17.5 111.8 985 45 3 Image Chart
1990 6 17 00 18.0 111.7 985 50 4 Image Chart
1990 6 17 06 18.8 111.7 980 55 4 Image Chart
1990 6 17 12 19.4 111.5 980 55 4 Image Chart
1990 6 17 18 20.0 111.1 980 55 4 Image Chart
1990 6 18 00 20.6 110.5 985 50 4 Image Chart
1990 6 18 06 21.3 109.6 990 45 3 Image Chart
1990 6 18 12 22.0 108.5 994 35 3 Image Chart
1990 6 18 18 22.5 107.5 998 0 2 Image Chart
1990 6 19 00 23.0 106.0 998 0 2 Image Chart
1990 6 19 06 23.5 105.0 1000 0 2 Image Chart
Japan Meteorological Agency Best Track Data | Correction Date : 1992-10-21
< Typhoon 199003 1990 Season Typhoon 199005 >

Help